createdAt,value
2018-06-14T00:01:11.674Z,100907.99
2018-06-14T00:03:41.657Z,100903.28
2018-06-14T00:06:11.632Z,100904.28
2018-06-14T00:08:41.631Z,100910.42
2018-06-14T00:11:12.219Z,100912.09
2018-06-14T00:13:42.207Z,100907.20
2018-06-14T00:16:12.488Z,100906.78
2018-06-14T00:18:42.430Z,100903.03
2018-06-14T00:21:12.638Z,100910.39
2018-06-14T00:23:42.666Z,100902.27
2018-06-14T00:26:12.626Z,100900.63
2018-06-14T00:28:42.498Z,100898.63
2018-06-14T00:31:12.513Z,100887.27
2018-06-14T00:33:42.390Z,100882.05
2018-06-14T00:36:12.176Z,100891.45
2018-06-14T00:38:42.066Z,100890.14
2018-06-14T00:41:11.958Z,100887.80
2018-06-14T00:43:41.862Z,100897.79
2018-06-14T00:46:11.752Z,100891.10
2018-06-14T00:48:41.571Z,100891.61
2018-06-14T00:51:11.514Z,100890.06
2018-06-14T00:53:41.413Z,100894.90
2018-06-14T00:56:11.613Z,100898.22
2018-06-14T00:58:41.522Z,100893.66
2018-06-14T01:01:11.375Z,100899.52
2018-06-14T01:03:41.122Z,100897.86
2018-06-14T01:06:11.094Z,100895.99
2018-06-14T01:08:41.032Z,100894.39
2018-06-14T01:11:10.788Z,100892.56
2018-06-14T01:13:41.031Z,100892.73
2018-06-14T01:16:11.351Z,100897.45
2018-06-14T01:18:41.346Z,100895.36
2018-06-14T01:21:11.226Z,100894.98
2018-06-14T01:23:41.037Z,100896.70
2018-06-14T01:26:10.913Z,100891.38
2018-06-14T01:28:41.454Z,100893.41
2018-06-14T01:31:11.333Z,100898.63
2018-06-14T01:33:41.282Z,100894.91
2018-06-14T01:36:11.243Z,100897.48
2018-06-14T01:38:41.831Z,100902.41
2018-06-14T01:41:11.215Z,100906.20
2018-06-14T01:43:41.051Z,100902.80
2018-06-14T01:46:11.050Z,100901.05
2018-06-14T01:48:41.361Z,100900.52
2018-06-14T01:51:11.395Z,100890.91
2018-06-14T01:53:41.948Z,100889.82
2018-06-14T01:56:11.855Z,100891.27
2018-06-14T01:58:41.617Z,100893.66
2018-06-14T02:01:11.584Z,100893.01
2018-06-14T02:03:41.473Z,100886.42
2018-06-14T02:06:11.153Z,100885.45
2018-06-14T02:08:41.379Z,100878.04
2018-06-14T02:11:11.725Z,100876.45
2018-06-14T02:13:41.599Z,100886.86
2018-06-14T02:16:13.326Z,100889.62
2018-06-14T02:18:43.310Z,100894.73
2018-06-14T02:21:13.254Z,100884.80
2018-06-14T02:23:43.646Z,100885.08
2018-06-14T02:26:13.470Z,100885.00
2018-06-14T02:28:43.377Z,100877.59
2018-06-14T02:31:13.267Z,100887.72
2018-06-14T02:33:43.254Z,100881.00
2018-06-14T02:36:13.286Z,100879.48
2018-06-14T02:38:44.135Z,100882.41
2018-06-14T02:41:14.158Z,100877.50
2018-06-14T02:43:44.146Z,100875.08
2018-06-14T02:46:14.147Z,100872.80
2018-06-14T02:48:44.112Z,100868.24
2018-06-14T02:51:13.626Z,100873.47
2018-06-14T02:53:43.359Z,100867.73
2018-06-14T02:56:13.713Z,100879.35
2018-06-14T02:58:43.703Z,100870.33
2018-06-14T03:01:13.486Z,100869.50
2018-06-14T03:03:43.325Z,100876.00
2018-06-14T03:06:13.618Z,100872.09
2018-06-14T03:08:43.456Z,100872.92
2018-06-14T03:11:13.415Z,100869.25
2018-06-14T03:13:43.486Z,100868.20
2018-06-14T03:16:13.435Z,100862.28
2018-06-14T03:18:43.386Z,100861.76
2018-06-14T03:21:13.234Z,100865.34
2018-06-14T03:23:43.271Z,100868.05
2018-06-14T03:26:13.082Z,100864.77
2018-06-14T03:28:43.053Z,100866.02
2018-06-14T03:31:13.066Z,100857.25
2018-06-14T03:33:42.862Z,100854.20
2018-06-14T03:36:12.826Z,100854.60
2018-06-14T03:38:42.854Z,100852.10
2018-06-14T03:41:12.847Z,100857.84
2018-06-14T03:43:42.783Z,100846.13
2018-06-14T03:46:12.750Z,100852.28
2018-06-14T03:48:42.730Z,100846.28
2018-06-14T03:51:12.735Z,100845.67
2018-06-14T03:53:42.638Z,100848.14
2018-06-14T03:56:12.589Z,100841.39
2018-06-14T03:58:42.471Z,100845.30
2018-06-14T04:01:12.303Z,100847.27
2018-06-14T04:03:42.067Z,100843.92
2018-06-14T04:06:12.758Z,100849.19
2018-06-14T04:08:42.617Z,100845.00
2018-06-14T04:11:12.615Z,100844.09
2018-06-14T04:13:43.454Z,100845.68
2018-06-14T04:16:13.348Z,100842.97
2018-06-14T04:18:43.122Z,100846.05
2018-06-14T04:21:13.043Z,100841.14
2018-06-14T04:23:43.006Z,100840.19
2018-06-14T04:26:12.876Z,100834.98
2018-06-14T04:28:42.941Z,100838.14
2018-06-14T04:31:12.938Z,100839.25
2018-06-14T04:33:42.760Z,100838.98
2018-06-14T04:36:12.706Z,100835.16
2018-06-14T04:38:42.673Z,100838.55
2018-06-14T04:41:12.542Z,100837.59
2018-06-14T04:43:42.418Z,100832.12
2018-06-14T04:46:12.431Z,100829.91
2018-06-14T04:48:42.668Z,100827.10
2018-06-14T04:51:12.923Z,100830.28
2018-06-14T04:53:42.929Z,100826.76
2018-06-14T04:56:13.595Z,100827.83
2018-06-14T04:58:43.537Z,100826.91
2018-06-14T05:01:13.407Z,100823.07
2018-06-14T05:03:43.327Z,100821.16
2018-06-14T05:06:13.222Z,100818.73
2018-06-14T05:08:43.600Z,100817.44
2018-06-14T05:11:13.574Z,100820.38
2018-06-14T05:13:43.398Z,100811.70
2018-06-14T05:16:13.237Z,100815.92
2018-06-14T05:18:43.326Z,100815.26
2018-06-14T05:21:13.362Z,100807.06
2018-06-14T05:23:44.048Z,100809.72
2018-06-14T05:26:14.063Z,100818.11
2018-06-14T05:28:43.943Z,100811.97
2018-06-14T05:31:13.846Z,100814.55
2018-06-14T05:33:43.798Z,100814.42
2018-06-14T05:36:13.773Z,100816.16
2018-06-14T05:38:43.732Z,100818.34
2018-06-14T05:41:13.734Z,100821.04
2018-06-14T05:43:43.546Z,100823.28
2018-06-14T05:46:23.979Z,100813.46
2018-06-14T05:48:54.375Z,100807.78
2018-06-14T05:51:24.210Z,100808.58
2018-06-14T05:53:54.067Z,100808.56
2018-06-14T05:56:23.967Z,100811.80
2018-06-14T05:58:53.810Z,100809.89
2018-06-14T06:01:23.788Z,100801.04
2018-06-14T06:03:53.851Z,100801.21
2018-06-14T06:06:23.738Z,100803.97
2018-06-14T06:08:53.726Z,100804.21
2018-06-14T06:11:23.725Z,100808.05
2018-06-14T06:13:53.699Z,100804.62
2018-06-14T06:16:23.654Z,100805.00
2018-06-14T06:18:53.662Z,100805.39
2018-06-14T06:21:23.656Z,100804.63
2018-06-14T06:23:53.715Z,100796.84
2018-06-14T06:26:23.782Z,100795.25
2018-06-14T06:28:53.521Z,100796.75
2018-06-14T06:31:23.548Z,100793.52
2018-06-14T06:33:53.414Z,100790.34
2018-06-14T06:36:23.302Z,100791.53
2018-06-14T06:38:53.062Z,100786.55
2018-06-14T06:41:23.139Z,100787.63
2018-06-14T06:43:53.037Z,100791.66
2018-06-14T06:46:22.768Z,100792.41
2018-06-14T06:48:52.671Z,100781.09
2018-06-14T06:51:22.678Z,100781.16
2018-06-14T06:53:52.680Z,100787.30
2018-06-14T06:56:22.766Z,100793.59
2018-06-14T06:58:53.042Z,100790.80
2018-06-14T07:01:22.843Z,100792.80
2018-06-14T07:03:52.920Z,100790.55
2018-06-14T07:06:22.552Z,100788.27
2018-06-14T07:08:52.321Z,100785.38
2018-06-14T07:11:22.176Z,100788.00
2018-06-14T07:13:52.169Z,100786.56
2018-06-14T07:16:22.064Z,100779.23
2018-06-14T07:18:52.318Z,100778.48
2018-06-14T07:21:22.175Z,100775.08
2018-06-14T07:23:52.146Z,100775.61
2018-06-14T07:26:23.135Z,100768.29
2018-06-14T07:28:52.998Z,100776.32
2018-06-14T07:31:22.730Z,100768.50
2018-06-14T07:33:52.661Z,100769.03
2018-06-14T07:36:22.648Z,100766.76
2018-06-14T07:38:52.571Z,100768.97
2018-06-14T07:41:22.549Z,100760.33
2018-06-14T07:43:52.450Z,100754.30
2018-06-14T07:46:22.459Z,100754.76
2018-06-14T07:48:52.419Z,100754.14
2018-06-14T07:51:22.332Z,100756.74
2018-06-14T07:53:52.306Z,100754.61
2018-06-14T07:56:22.279Z,100747.58
2018-06-14T07:58:52.162Z,100749.00
2018-06-14T08:01:21.770Z,100744.39
2018-06-14T08:03:51.788Z,100750.22
2018-06-14T08:06:21.678Z,100753.22
2018-06-14T08:08:51.465Z,100744.95
2018-06-14T08:11:21.254Z,100745.07
2018-06-14T08:13:51.275Z,100741.41
2018-06-14T08:16:21.085Z,100743.45
2018-06-14T08:18:50.982Z,100747.22
2018-06-14T08:21:20.858Z,100750.92
2018-06-14T08:23:50.806Z,100751.49
2018-06-14T08:26:20.833Z,100740.78
2018-06-14T08:28:50.835Z,100748.66
2018-06-14T08:31:20.803Z,100745.98
2018-06-14T08:33:50.778Z,100744.28
2018-06-14T08:36:20.638Z,100741.66
2018-06-14T08:38:50.376Z,100744.66
2018-06-14T08:41:20.198Z,100737.36
2018-06-14T08:43:50.054Z,100740.61
2018-06-14T08:46:20.039Z,100738.11
2018-06-14T08:48:53.000Z,100735.77
2018-06-14T08:51:23.100Z,100739.27
2018-06-14T08:53:53.058Z,100735.80
2018-06-14T08:56:22.888Z,100728.87
2018-06-14T08:58:52.798Z,100727.12
2018-06-14T09:01:22.758Z,100727.77
2018-06-14T09:03:53.027Z,100729.15
2018-06-14T09:06:22.999Z,100735.69
2018-06-14T09:08:52.835Z,100728.81
2018-06-14T09:11:22.831Z,100736.30
2018-06-14T09:13:52.738Z,100740.05
2018-06-14T09:16:23.069Z,100728.63
2018-06-14T09:18:52.933Z,100728.30
2018-06-14T09:21:22.762Z,100725.59
2018-06-14T09:23:52.933Z,100724.03
2018-06-14T09:26:22.922Z,100715.00
2018-06-14T09:28:52.826Z,100716.66
2018-06-14T09:31:22.703Z,100713.06
2018-06-14T09:33:52.694Z,100713.61
2018-06-14T09:36:22.562Z,100708.22
2018-06-14T09:38:52.551Z,100711.38
2018-06-14T09:41:22.431Z,100710.00
2018-06-14T09:43:52.490Z,100714.80
2018-06-14T09:46:22.436Z,100709.32
2018-06-14T09:48:58.199Z,100727.50
2018-06-14T09:51:28.034Z,100719.80
2018-06-14T09:53:57.894Z,100724.27
2018-06-14T09:56:44.238Z,100723.22
2018-06-14T09:59:14.230Z,100722.73
2018-06-14T10:01:44.182Z,100714.13
2018-06-14T10:04:14.111Z,100711.27
2018-06-14T10:06:44.091Z,100715.53
2018-06-14T10:09:13.929Z,100715.92
2018-06-14T10:11:43.715Z,100711.70
2018-06-14T10:14:17.266Z,100718.42
2018-06-14T10:16:47.282Z,100722.61
2018-06-14T10:19:17.236Z,100717.67
2018-06-14T10:21:47.323Z,100713.23
2018-06-14T10:24:17.171Z,100706.62
2018-06-14T10:26:47.011Z,100715.36
2018-06-14T10:29:16.902Z,100713.01
2018-06-14T10:31:46.742Z,100718.75
2018-06-14T10:34:16.599Z,100709.78
2018-06-14T10:36:46.550Z,100713.88
2018-06-14T10:39:16.407Z,100713.16
2018-06-14T10:41:48.555Z,100713.52
2018-06-14T10:44:18.602Z,100707.05
2018-06-14T10:46:48.531Z,100710.66
2018-06-14T10:49:18.361Z,100708.86
2018-06-14T10:51:48.385Z,100706.92
2018-06-14T10:54:18.695Z,100699.38
2018-06-14T10:56:48.894Z,100699.27
2018-06-14T10:59:18.741Z,100698.91
2018-06-14T11:01:49.547Z,100686.05
2018-06-14T11:04:19.399Z,100687.48
2018-06-14T11:06:49.303Z,100686.96
2018-06-14T11:09:19.176Z,100686.09
2018-06-14T11:11:49.181Z,100686.34
2018-06-14T11:14:19.094Z,100686.67
2018-06-14T11:16:49.054Z,100681.27
2018-06-14T11:19:18.889Z,100683.37
2018-06-14T11:21:48.790Z,100674.72
2018-06-14T11:24:18.635Z,100672.92
2018-06-14T11:26:48.461Z,100668.25
2018-06-14T11:29:18.219Z,100661.47
2018-06-14T11:31:50.654Z,100652.23
2018-06-14T11:34:20.679Z,100642.86
2018-06-14T11:36:50.719Z,100656.20
2018-06-14T11:39:20.548Z,100641.38
2018-06-14T11:41:50.381Z,100642.19
2018-06-14T11:44:20.307Z,100645.41
2018-06-14T11:46:50.194Z,100635.98
2018-06-14T11:49:19.939Z,100636.80
2018-06-14T11:51:49.931Z,100642.48
2018-06-14T11:54:19.722Z,100635.12
2018-06-14T11:56:49.554Z,100635.61
2018-06-14T11:59:19.623Z,100636.91
2018-06-14T12:01:50.625Z,100633.19
2018-06-14T12:04:20.595Z,100638.42
2018-06-14T12:06:50.451Z,100629.55
2018-06-14T12:09:21.135Z,100632.05
2018-06-14T12:11:51.266Z,100623.08
2018-06-14T12:14:21.199Z,100625.92
2018-06-14T12:16:51.101Z,100623.62
2018-06-14T12:19:20.892Z,100622.88
2018-06-14T12:21:50.819Z,100625.72
2018-06-14T12:24:20.767Z,100621.37
2018-06-14T12:26:50.228Z,100614.05
2018-06-14T12:29:20.033Z,100613.85
2018-06-14T12:31:49.795Z,100612.89
2018-06-14T12:34:19.909Z,100603.80
2018-06-14T12:36:49.791Z,100611.78
2018-06-14T12:39:19.916Z,100611.22
2018-06-14T12:41:49.766Z,100599.73
2018-06-14T12:44:19.861Z,100601.22
2018-06-14T12:46:53.316Z,100600.27
2018-06-14T12:49:23.139Z,100602.38
2018-06-14T12:51:53.077Z,100594.28
2018-06-14T12:54:23.110Z,100602.92
2018-06-14T12:56:52.968Z,100602.16
2018-06-14T12:59:22.894Z,100592.25
2018-06-14T13:01:52.816Z,100587.25
2018-06-14T13:04:22.843Z,100585.89
2018-06-14T13:06:52.732Z,100577.59
2018-06-14T13:09:22.856Z,100589.82
2018-06-14T13:11:53.387Z,100587.92
2018-06-14T13:14:23.323Z,100583.38
2018-06-14T13:16:53.279Z,100585.20
2018-06-14T13:19:23.035Z,100587.25
2018-06-14T13:21:53.526Z,100587.44
2018-06-14T13:24:23.524Z,100585.69
2018-06-14T13:26:53.462Z,100581.01
2018-06-14T13:29:23.323Z,100576.34
2018-06-14T13:31:53.176Z,100576.83
2018-06-14T13:34:23.344Z,100570.84
2018-06-14T13:36:53.781Z,100575.02
2018-06-14T13:39:23.643Z,100573.91
2018-06-14T13:41:53.510Z,100570.42
2018-06-14T13:44:23.368Z,100573.16
2018-06-14T13:46:54.230Z,100570.77
2018-06-14T13:49:24.248Z,100563.72
2018-06-14T13:51:54.212Z,100571.75
2018-06-14T13:54:24.131Z,100572.66
2018-06-14T13:56:54.082Z,100574.25
2018-06-14T13:59:24.025Z,100568.68
2018-06-14T14:01:54.819Z,100570.48
2018-06-14T14:04:24.875Z,100569.02
2018-06-14T14:07:11.286Z,100568.41
2018-06-14T14:09:41.273Z,100566.66
2018-06-14T14:12:11.185Z,100563.45
2018-06-14T14:14:41.213Z,100565.75
2018-06-14T14:17:11.220Z,100571.73
2018-06-14T14:19:41.132Z,100574.95
2018-06-14T14:22:11.023Z,100562.87
2018-06-14T14:24:40.889Z,100579.18
2018-06-14T14:27:10.778Z,100570.00
2018-06-14T14:29:40.715Z,100579.08
2018-06-14T14:32:10.651Z,100567.77
2018-06-14T14:34:40.511Z,100570.27
2018-06-14T14:37:10.632Z,100573.03
2018-06-14T14:39:40.491Z,100572.48
2018-06-14T14:42:10.332Z,100578.14
2018-06-14T14:44:40.830Z,100582.89
2018-06-14T14:47:10.791Z,100586.65
2018-06-14T14:49:40.630Z,100587.66
2018-06-14T14:52:10.592Z,100591.50
2018-06-14T14:54:40.520Z,100587.34
2018-06-14T14:57:10.022Z,100593.66
2018-06-14T14:59:39.916Z,100599.48
2018-06-14T15:02:09.812Z,100594.53
2018-06-14T15:04:39.700Z,100597.88
2018-06-14T15:07:09.978Z,100602.28
2018-06-14T15:09:39.874Z,100598.94
2018-06-14T15:12:09.816Z,100601.05
2018-06-14T15:14:39.721Z,100600.23
2018-06-14T15:17:09.619Z,100603.09
2018-06-14T15:19:39.512Z,100603.78
2018-06-14T15:22:09.414Z,100610.70
2018-06-14T15:24:39.440Z,100615.03
2018-06-14T15:27:09.308Z,100618.27
2018-06-14T15:29:39.473Z,100617.00
2018-06-14T15:32:21.908Z,100618.28
2018-06-14T15:34:51.795Z,100628.46
2018-06-14T15:37:21.871Z,100626.40
2018-06-14T15:39:51.801Z,100628.67
2018-06-14T15:42:21.722Z,100627.70
2018-06-14T15:44:51.873Z,100631.56
2018-06-14T15:47:39.116Z,100639.00
2018-06-14T15:50:27.378Z,100639.70
2018-06-14T15:52:57.323Z,100644.77
2018-06-14T15:58:52.943Z,100644.89
2018-06-14T16:01:41.467Z,100645.38
2018-06-14T16:04:14.427Z,100649.67
2018-06-14T16:06:44.279Z,100651.31
2018-06-14T16:09:14.368Z,100660.22
2018-06-14T16:11:47.821Z,100662.16
2018-06-14T16:14:22.859Z,100656.63
2018-06-14T16:16:53.100Z,100674.54
2018-06-14T16:23:04.500Z,100668.61
2018-06-14T16:25:38.175Z,100668.99
2018-06-14T16:31:08.337Z,100682.81
2018-06-14T16:34:02.408Z,100688.70
2018-06-14T16:36:34.547Z,100692.61
2018-06-14T16:39:07.567Z,100695.88
2018-06-14T16:41:38.432Z,100696.84
2018-06-14T16:44:08.632Z,100697.08
2018-06-14T16:46:38.612Z,100693.38
2018-06-14T16:49:08.649Z,100695.84
2018-06-14T16:51:38.790Z,100710.22
2018-06-14T16:54:09.111Z,100702.70
2018-06-14T16:57:04.848Z,100699.97
2018-06-14T16:59:36.395Z,100696.59
2018-06-14T17:02:07.899Z,100695.38
2018-06-14T17:04:38.747Z,100700.45
2018-06-14T17:07:08.874Z,100702.86
2018-06-14T17:12:52.692Z,100698.00
2018-06-14T17:15:25.853Z,100694.69
2018-06-14T17:18:04.267Z,100693.85
2018-06-14T17:20:36.742Z,100692.62
2018-06-14T17:23:07.340Z,100687.35
2018-06-14T17:25:37.393Z,100689.13
2018-06-14T17:28:07.743Z,100693.56
2018-06-14T17:30:37.735Z,100693.72
2018-06-14T17:36:30.412Z,100689.14
2018-06-14T17:47:56.053Z,100688.84
2018-06-14T17:50:40.082Z,100697.80
2018-06-14T17:53:12.352Z,100696.45
2018-06-14T17:55:58.017Z,100701.81
2018-06-14T17:58:28.387Z,100706.38
2018-06-14T18:00:58.543Z,100706.27
2018-06-14T18:03:28.840Z,100704.27
2018-06-14T18:06:02.113Z,100700.41
2018-06-14T18:08:39.206Z,100700.03
2018-06-14T18:11:09.202Z,100703.15
2018-06-14T18:13:39.871Z,100715.34
2018-06-14T18:16:25.742Z,100710.11
2018-06-14T18:19:31.067Z,100707.05
2018-06-14T18:22:28.855Z,100710.17
2018-06-14T18:25:22.649Z,100712.79
2018-06-14T18:28:06.517Z,100713.14
2018-06-14T18:30:55.919Z,100711.34
2018-06-14T18:33:30.999Z,100715.77
2018-06-14T18:36:05.939Z,100717.78
2018-06-14T18:41:55.472Z,100713.33
2018-06-14T18:48:40.949Z,100710.58
2018-06-14T18:51:25.824Z,100719.31
2018-06-14T18:53:55.942Z,100722.38
2018-06-14T18:56:55.712Z,100721.98
2018-06-14T20:40:19.927Z,100778.53
2018-06-14T20:43:16.869Z,100775.89
2018-06-14T20:45:54.707Z,100788.89
2018-06-14T20:48:25.059Z,100784.53
2018-06-14T20:51:21.533Z,100785.25
2018-06-14T20:53:55.827Z,100786.09
2018-06-14T20:56:35.870Z,100793.48
2018-06-14T20:59:05.394Z,100792.20
2018-06-14T21:01:35.671Z,100790.44
2018-06-14T21:07:09.714Z,100805.79
2018-06-14T21:09:45.144Z,100804.25
2018-06-14T21:12:21.551Z,100807.41
2018-06-14T21:14:52.264Z,100810.78
2018-06-14T21:17:22.647Z,100822.42
2018-06-14T21:19:52.586Z,100815.55
2018-06-14T21:22:22.549Z,100823.91
2018-06-14T21:24:52.606Z,100822.17
2018-06-14T21:27:22.579Z,100826.73
2018-06-14T21:29:52.647Z,100828.16
2018-06-14T21:32:22.588Z,100825.02
2018-06-14T21:34:52.714Z,100823.45
2018-06-14T21:37:22.793Z,100821.66
2018-06-14T21:39:52.742Z,100826.66
2018-06-14T21:42:22.615Z,100827.52
2018-06-14T21:44:53.412Z,100823.33
2018-06-14T21:47:23.497Z,100828.14
2018-06-14T21:49:53.519Z,100822.64
2018-06-14T21:52:26.807Z,100825.11
2018-06-14T21:54:57.012Z,100819.11
2018-06-14T21:57:26.998Z,100832.53
2018-06-14T21:59:57.181Z,100823.48
2018-06-14T22:02:27.189Z,100823.87
2018-06-14T22:04:57.392Z,100827.39
2018-06-14T22:07:27.429Z,100825.95
2018-06-14T22:09:57.620Z,100828.66
2018-06-14T22:12:27.888Z,100827.44
2018-06-14T22:14:58.468Z,100819.81
2018-06-14T22:17:28.979Z,100829.13
2018-06-14T22:20:00.760Z,100831.34
2018-06-14T22:22:30.878Z,100826.31
2018-06-14T22:25:01.289Z,100820.88
2018-06-14T22:27:31.897Z,100827.98
2018-06-14T22:30:02.716Z,100821.97
2018-06-14T22:32:33.420Z,100827.81
2018-06-14T22:35:46.766Z,100827.84
2018-06-14T22:38:17.490Z,100830.45
2018-06-14T22:40:47.696Z,100828.38
2018-06-14T22:43:18.557Z,100831.17
2018-06-14T22:45:48.608Z,100837.82
2018-06-14T22:48:18.774Z,100827.81
2018-06-14T22:51:05.334Z,100828.38
2018-06-14T22:53:36.243Z,100834.30
2018-06-14T22:56:06.649Z,100835.02
2018-06-14T22:58:37.450Z,100826.92
2018-06-14T23:01:38.958Z,100826.22
2018-06-14T23:04:10.451Z,100836.62
2018-06-14T23:06:40.699Z,100825.66
2018-06-14T23:10:43.604Z,100827.37
2018-06-14T23:13:16.071Z,100824.54
2018-06-14T23:15:47.241Z,100819.91
2018-06-14T23:18:18.029Z,100822.02
2018-06-14T23:20:48.724Z,100815.97
2018-06-14T23:23:18.860Z,100815.97
2018-06-14T23:25:48.655Z,100816.63
2018-06-14T23:28:19.067Z,100821.80
2018-06-14T23:30:50.115Z,100815.84
2018-06-14T23:33:20.192Z,100817.44
2018-06-14T23:35:49.936Z,100819.59
2018-06-14T23:38:21.090Z,100813.91
2018-06-14T23:40:51.508Z,100817.19
2018-06-14T23:43:21.979Z,100819.31
2018-06-14T23:45:52.280Z,100818.16
2018-06-14T23:48:22.310Z,100823.27
2018-06-14T23:50:53.386Z,100822.39
2018-06-14T23:53:22.918Z,100823.28
2018-06-14T23:55:52.875Z,100816.39
2018-06-14T23:58:22.775Z,100824.44
